createdAt,value
2019-02-14T00:00:13.768Z,102334.55
2019-02-14T00:01:21.653Z,102340.77
2019-02-14T00:02:28.277Z,102342.57
2019-02-14T00:03:35.664Z,102345.28
2019-02-14T00:04:42.684Z,102346.65
2019-02-14T00:05:49.146Z,102346.10
2019-02-14T00:06:56.035Z,102346.19
2019-02-14T00:08:03.224Z,102354.06
2019-02-14T00:09:10.515Z,102358.64
2019-02-14T00:10:17.723Z,102365.62
2019-02-14T00:11:24.752Z,102359.78
2019-02-14T00:12:31.553Z,102368.16
2019-02-14T00:13:38.394Z,102371.14
2019-02-14T00:14:44.844Z,102364.41
2019-02-14T00:15:51.631Z,102365.39
2019-02-14T00:16:57.563Z,102363.27
2019-02-14T00:18:03.224Z,102363.67
2019-02-14T00:19:08.869Z,102357.52
2019-02-14T00:20:14.511Z,102356.11
2019-02-14T00:21:20.186Z,102355.16
2019-02-14T00:22:25.854Z,102357.78
2019-02-14T00:23:31.538Z,102358.87
2019-02-14T00:24:37.181Z,102358.46
2019-02-14T00:25:42.843Z,102347.95
2019-02-14T00:26:48.490Z,102358.02
2019-02-14T00:27:55.405Z,102356.88
2019-02-14T00:29:02.292Z,102369.11
2019-02-14T00:30:10.725Z,102367.84
2019-02-14T00:31:17.488Z,102361.72
2019-02-14T00:32:23.924Z,102378.84
2019-02-14T00:33:30.975Z,102374.36
2019-02-14T00:34:37.394Z,102372.82
2019-02-14T00:35:44.265Z,102369.70
2019-02-14T00:36:50.649Z,102380.12
2019-02-14T00:37:57.218Z,102368.02
2019-02-14T00:39:03.694Z,102373.59
2019-02-14T00:40:11.344Z,102373.59
2019-02-14T00:41:17.910Z,102366.06
2019-02-14T00:42:24.889Z,102361.55
2019-02-14T00:43:32.027Z,102364.17
2019-02-14T00:44:38.918Z,102361.98
2019-02-14T00:45:45.803Z,102367.06
2019-02-14T00:46:51.504Z,102361.67
2019-02-14T00:47:57.147Z,102367.47
2019-02-14T00:49:02.788Z,102365.42
2019-02-14T00:50:09.118Z,102364.17
2019-02-14T00:51:14.698Z,102368.05
2019-02-14T00:52:22.152Z,102365.84
2019-02-14T00:53:27.778Z,102365.02
2019-02-14T00:54:33.458Z,102373.45
2019-02-14T00:55:39.093Z,102379.69
2019-02-14T00:56:45.543Z,102369.66
2019-02-14T00:57:51.731Z,102373.13
2019-02-14T00:58:58.553Z,102368.34
2019-02-14T01:00:06.472Z,102380.73
2019-02-14T01:01:13.173Z,102380.16
2019-02-14T01:02:19.844Z,102380.65
2019-02-14T01:03:26.200Z,102386.40
2019-02-14T01:04:33.003Z,102380.10
2019-02-14T01:05:40.288Z,102379.20
2019-02-14T01:06:46.905Z,102388.24
2019-02-14T01:07:53.671Z,102380.28
2019-02-14T01:09:00.591Z,102388.66
2019-02-14T01:10:12.308Z,102386.44
2019-02-14T01:11:19.183Z,102380.19
2019-02-14T01:12:25.701Z,102387.89
2019-02-14T01:13:32.275Z,102386.31
2019-02-14T01:14:38.287Z,102396.00
2019-02-14T01:15:44.055Z,102392.83
2019-02-14T01:16:49.888Z,102392.73
2019-02-14T01:17:55.747Z,102395.45
2019-02-14T01:19:01.408Z,102401.16
2019-02-14T01:20:08.170Z,102398.22
2019-02-14T01:21:14.817Z,102397.40
2019-02-14T01:22:20.482Z,102392.56
2019-02-14T01:23:26.587Z,102400.93
2019-02-14T01:24:32.938Z,102400.08
2019-02-14T01:25:38.601Z,102403.75
2019-02-14T01:26:45.234Z,102410.00
2019-02-14T01:27:51.335Z,102401.03
2019-02-14T01:28:58.651Z,102411.77
2019-02-14T01:30:08.737Z,102408.47
2019-02-14T01:31:15.027Z,102416.35
2019-02-14T01:32:23.520Z,102419.47
2019-02-14T01:33:30.008Z,102424.64
2019-02-14T01:34:36.629Z,102432.88
2019-02-14T01:35:43.287Z,102428.70
2019-02-14T01:36:50.665Z,102432.97
2019-02-14T01:37:57.938Z,102439.53
2019-02-14T01:39:05.963Z,102432.88
2019-02-14T01:40:12.845Z,102432.18
2019-02-14T01:41:19.184Z,102435.12
2019-02-14T01:42:26.114Z,102431.59
2019-02-14T01:43:32.531Z,102430.14
2019-02-14T01:44:38.824Z,102433.58
2019-02-14T01:45:44.505Z,102432.67
2019-02-14T01:46:50.297Z,102433.98
2019-02-14T01:47:56.064Z,102433.34
2019-02-14T01:49:01.875Z,102437.05
2019-02-14T01:50:11.015Z,102435.68
2019-02-14T01:51:17.314Z,102438.22
2019-02-14T01:52:24.190Z,102438.39
2019-02-14T01:53:30.055Z,102439.14
2019-02-14T01:54:35.691Z,102444.66
2019-02-14T01:55:41.634Z,102440.94
2019-02-14T01:56:49.175Z,102445.23
2019-02-14T01:57:56.331Z,102443.42
2019-02-14T01:59:04.123Z,102448.43
2019-02-14T02:00:15.641Z,102449.09
2019-02-14T02:01:22.534Z,102450.42
2019-02-14T02:02:29.571Z,102449.92
2019-02-14T02:03:36.025Z,102452.25
2019-02-14T02:04:42.896Z,102456.50
2019-02-14T02:05:51.023Z,102459.43
2019-02-14T02:06:57.606Z,102467.39
2019-02-14T02:08:05.221Z,102466.64
2019-02-14T02:09:12.181Z,102470.67
2019-02-14T02:10:19.335Z,102470.83
2019-02-14T02:11:26.310Z,102471.98
2019-02-14T02:12:33.234Z,102471.64
2019-02-14T02:13:40.261Z,102472.45
2019-02-14T02:14:46.392Z,102470.27
2019-02-14T02:15:52.054Z,102474.81
2019-02-14T02:16:57.962Z,102471.06
2019-02-14T02:18:03.612Z,102474.16
2019-02-14T02:19:09.575Z,102473.69
2019-02-14T02:20:15.444Z,102461.80
2019-02-14T02:21:21.574Z,102472.69
2019-02-14T02:22:27.244Z,102474.91
2019-02-14T02:23:32.911Z,102478.03
2019-02-14T02:24:38.550Z,102471.98
2019-02-14T02:25:44.155Z,102467.20
2019-02-14T02:26:49.834Z,102471.63
2019-02-14T02:27:56.874Z,102469.51
2019-02-14T02:29:04.274Z,102472.39
2019-02-14T02:30:15.266Z,102468.20
2019-02-14T02:31:21.704Z,102469.77
2019-02-14T02:32:29.480Z,102467.39
2019-02-14T02:33:37.457Z,102471.42
2019-02-14T02:34:44.243Z,102468.61
2019-02-14T02:36:00.005Z,102471.73
2019-02-14T02:36:59.284Z,102467.09
2019-02-14T02:38:06.854Z,102477.39
2019-02-14T02:39:14.672Z,102466.68
2019-02-14T02:40:22.625Z,102465.92
2019-02-14T02:41:29.131Z,102467.80
2019-02-14T02:42:36.110Z,102467.80
2019-02-14T02:43:42.634Z,102462.73
2019-02-14T02:44:49.730Z,102464.61
2019-02-14T02:45:55.403Z,102462.54
2019-02-14T02:47:01.244Z,102468.38
2019-02-14T02:48:06.928Z,102471.09
2019-02-14T02:49:12.930Z,102476.50
2019-02-14T02:50:18.825Z,102472.56
2019-02-14T02:51:24.823Z,102473.93
2019-02-14T02:52:31.163Z,102475.43
2019-02-14T02:53:37.103Z,102482.23
2019-02-14T02:54:42.776Z,102481.57
2019-02-14T02:55:48.448Z,102472.88
2019-02-14T02:56:54.136Z,102477.53
2019-02-14T02:58:01.634Z,102475.55
2019-02-14T02:59:07.593Z,102478.36
2019-02-14T03:00:17.923Z,102482.85
2019-02-14T03:01:24.673Z,102480.38
2019-02-14T03:02:31.268Z,102488.48
2019-02-14T03:03:37.666Z,102482.02
2019-02-14T03:04:43.834Z,102487.01
2019-02-14T03:05:50.831Z,102487.41
2019-02-14T03:06:57.685Z,102480.30
2019-02-14T03:08:04.788Z,102480.80
2019-02-14T03:09:12.385Z,102482.42
2019-02-14T03:10:19.154Z,102486.77
2019-02-14T03:11:26.055Z,102482.33
2019-02-14T03:12:33.086Z,102489.39
2019-02-14T03:13:39.589Z,102495.91
2019-02-14T03:14:46.432Z,102490.16
2019-02-14T03:15:52.345Z,102496.62
2019-02-14T03:16:58.165Z,102492.19
2019-02-14T03:18:05.278Z,102494.41
2019-02-14T03:19:10.918Z,102498.03
2019-02-14T03:20:16.573Z,102498.18
2019-02-14T03:21:22.244Z,102503.98
2019-02-14T03:22:28.433Z,102500.14
2019-02-14T03:23:34.565Z,102509.92
2019-02-14T03:24:40.294Z,102506.94
2019-02-14T03:25:45.973Z,102502.24
2019-02-14T03:26:52.483Z,102509.90
2019-02-14T03:27:59.524Z,102506.60
2019-02-14T03:29:06.109Z,102513.22
2019-02-14T03:30:16.234Z,102518.57
2019-02-14T03:31:23.048Z,102514.36
2019-02-14T03:32:30.081Z,102520.12
2019-02-14T03:33:36.935Z,102514.86
2019-02-14T03:34:43.474Z,102520.62
2019-02-14T03:35:50.171Z,102513.14
2019-02-14T03:36:57.812Z,102519.36
2019-02-14T03:38:04.202Z,102516.33
2019-02-14T03:39:11.052Z,102522.98
2019-02-14T03:40:18.143Z,102520.36
2019-02-14T03:41:25.849Z,102512.06
2019-02-14T03:42:33.212Z,102521.26
2019-02-14T03:43:40.563Z,102514.28
2019-02-14T03:44:47.436Z,102515.66
2019-02-14T03:45:53.187Z,102513.52
2019-02-14T03:46:58.896Z,102519.59
2019-02-14T03:48:04.576Z,102518.87
2019-02-14T03:49:10.545Z,102517.61
2019-02-14T03:50:16.216Z,102521.23
2019-02-14T03:51:22.436Z,102526.62
2019-02-14T03:52:28.296Z,102523.68
2019-02-14T03:53:34.066Z,102526.45
2019-02-14T03:54:40.166Z,102531.45
2019-02-14T03:55:46.126Z,102526.78
2019-02-14T03:56:51.798Z,102523.73
2019-02-14T03:57:59.194Z,102523.47
2019-02-14T03:59:06.516Z,102522.30
2019-02-14T04:00:18.921Z,102522.44
2019-02-14T04:01:25.736Z,102524.39
2019-02-14T04:02:33.103Z,102528.02
2019-02-14T04:03:41.417Z,102531.60
2019-02-14T04:04:48.604Z,102527.34
2019-02-14T04:05:55.301Z,102536.62
2019-02-14T04:07:02.245Z,102531.52
2019-02-14T04:08:09.315Z,102528.12
2019-02-14T04:09:17.416Z,102529.52
2019-02-14T04:10:23.177Z,102530.42
2019-02-14T04:11:30.568Z,102525.98
2019-02-14T04:12:37.407Z,102534.78
2019-02-14T04:13:44.135Z,102533.10
2019-02-14T04:14:50.888Z,102538.05
2019-02-14T04:15:56.537Z,102534.23
2019-02-14T04:17:02.169Z,102531.28
2019-02-14T04:18:08.177Z,102536.27
2019-02-14T04:19:14.235Z,102533.73
2019-02-14T04:20:20.277Z,102537.73
2019-02-14T04:21:26.226Z,102536.00
2019-02-14T04:22:32.078Z,102534.77
2019-02-14T04:23:37.967Z,102537.95
2019-02-14T04:24:44.408Z,102533.19
2019-02-14T04:25:50.418Z,102533.73
2019-02-14T04:26:56.215Z,102533.00
2019-02-14T04:28:03.710Z,102531.68
2019-02-14T04:29:10.168Z,102533.13
2019-02-14T04:30:18.207Z,102532.72
2019-02-14T04:31:24.719Z,102536.38
2019-02-14T04:32:31.616Z,102539.06
2019-02-14T04:33:38.956Z,102531.75
2019-02-14T04:34:46.401Z,102526.53
2019-02-14T04:35:55.979Z,102530.16
2019-02-14T04:37:03.494Z,102523.62
2019-02-14T04:38:10.439Z,102529.39
2019-02-14T04:39:17.880Z,102533.01
2019-02-14T04:40:33.234Z,102526.42
2019-02-14T04:41:33.089Z,102533.83
2019-02-14T04:42:40.785Z,102531.73
2019-02-14T04:43:47.873Z,102526.16
2019-02-14T04:44:54.934Z,102529.19
2019-02-14T04:46:00.619Z,102530.59
2019-02-14T04:47:06.307Z,102530.52
2019-02-14T04:48:12.259Z,102537.09
2019-02-14T04:49:18.119Z,102537.58
2019-02-14T04:50:25.945Z,102531.50
2019-02-14T04:51:32.553Z,102539.39
2019-02-14T04:52:39.130Z,102534.13
2019-02-14T04:53:45.710Z,102536.31
2019-02-14T04:54:51.779Z,102539.61
2019-02-14T04:55:58.027Z,102533.03
2019-02-14T04:57:04.887Z,102533.98
2019-02-14T04:58:11.309Z,102527.00
2019-02-14T04:59:17.367Z,102524.45
2019-02-14T05:00:23.558Z,102522.69
2019-02-14T05:01:29.566Z,102520.05
2019-02-14T05:02:38.117Z,102518.91
2019-02-14T05:03:45.646Z,102527.70
2019-02-14T05:04:52.419Z,102527.63
2019-02-14T05:05:58.772Z,102532.89
2019-02-14T05:07:05.411Z,102536.02
2019-02-14T05:08:12.273Z,102534.74
2019-02-14T05:09:18.764Z,102534.00
2019-02-14T05:10:25.044Z,102534.50
2019-02-14T05:11:31.501Z,102537.59
2019-02-14T05:12:38.934Z,102540.72
2019-02-14T05:13:46.384Z,102542.03
2019-02-14T05:14:52.924Z,102542.16
2019-02-14T05:15:58.835Z,102546.28
2019-02-14T05:17:04.543Z,102546.28
2019-02-14T05:18:10.414Z,102545.78
2019-02-14T05:19:16.654Z,102545.70
2019-02-14T05:20:22.304Z,102540.31
2019-02-14T05:21:28.621Z,102538.99
2019-02-14T05:22:34.874Z,102537.59
2019-02-14T05:23:40.861Z,102542.45
2019-02-14T05:24:47.159Z,102545.08
2019-02-14T05:25:53.324Z,102544.17
2019-02-14T05:26:59.652Z,102547.30
2019-02-14T05:28:06.001Z,102553.55
2019-02-14T05:29:12.684Z,102555.41
2019-02-14T05:30:20.641Z,102552.28
2019-02-14T05:31:27.021Z,102549.33
2019-02-14T05:32:33.724Z,102549.33
2019-02-14T05:33:40.844Z,102541.42
2019-02-14T05:34:47.654Z,102546.20
2019-02-14T05:35:54.092Z,102555.00
2019-02-14T05:37:01.054Z,102557.72
2019-02-14T05:38:08.655Z,102559.98
2019-02-14T05:39:14.964Z,102560.81
2019-02-14T05:40:21.483Z,102569.61
2019-02-14T05:41:27.863Z,102561.72
2019-02-14T05:42:35.806Z,102566.24
2019-02-14T05:43:43.317Z,102573.73
2019-02-14T05:44:50.905Z,102570.23
2019-02-14T05:45:58.258Z,102572.46
2019-02-14T05:47:04.095Z,102578.30
2019-02-14T05:48:10.355Z,102577.45
2019-02-14T05:49:16.737Z,102576.08
2019-02-14T05:50:22.907Z,102577.45
2019-02-14T05:51:28.583Z,102573.91
2019-02-14T05:52:34.464Z,102580.16
2019-02-14T05:53:41.075Z,102582.80
2019-02-14T05:54:46.835Z,102579.34
2019-02-14T05:55:52.846Z,102580.66
2019-02-14T05:56:59.275Z,102586.42
2019-02-14T05:58:05.166Z,102588.20
2019-02-14T05:59:12.285Z,102583.34
2019-02-14T06:00:20.146Z,102588.69
2019-02-14T06:01:37.056Z,102597.58
2019-02-14T06:02:43.933Z,102597.58
2019-02-14T06:04:34.615Z,102598.48
2019-02-14T06:05:51.435Z,102599.36
2019-02-14T06:07:06.492Z,102605.11
2019-02-14T06:08:15.963Z,102596.72
2019-02-14T06:09:23.112Z,102602.07
2019-02-14T06:10:34.344Z,102602.56
2019-02-14T06:11:47.265Z,102603.93
2019-02-14T06:12:53.632Z,102607.88
2019-02-14T06:14:01.705Z,102610.11
2019-02-14T06:15:12.193Z,102606.56
2019-02-14T06:16:18.265Z,102609.36
2019-02-14T06:17:25.955Z,102611.59
2019-02-14T06:18:33.694Z,102607.22
2019-02-14T06:19:40.125Z,102605.05
2019-02-14T06:20:46.252Z,102606.95
2019-02-14T06:21:53.082Z,102606.99
2019-02-14T06:23:00.985Z,102605.27
2019-02-14T06:24:07.595Z,102604.85
2019-02-14T06:25:15.033Z,102611.44
2019-02-14T06:26:23.379Z,102619.34
2019-02-14T06:27:29.642Z,102611.52
2019-02-14T06:28:37.320Z,102617.28
2019-02-14T06:29:43.522Z,102620.05
2019-02-14T06:31:08.463Z,102617.91
2019-02-14T06:32:15.685Z,102626.77
2019-02-14T06:33:57.795Z,102630.30
2019-02-14T06:35:12.462Z,102631.70
2019-02-14T06:36:19.865Z,102632.53
2019-02-14T06:37:30.792Z,102644.80
2019-02-14T06:38:48.182Z,102639.52
2019-02-14T06:40:05.164Z,102653.24
2019-02-14T06:41:34.481Z,102651.10
2019-02-14T06:42:54.930Z,102654.72
2019-02-14T06:44:03.100Z,102658.67
2019-02-14T06:45:46.143Z,102649.04
2019-02-14T06:47:05.414Z,102647.86
2019-02-14T06:48:32.255Z,102636.49
2019-02-14T06:49:54.872Z,102633.86
2019-02-14T06:51:18.297Z,102625.54
2019-02-14T06:52:44.656Z,102628.22
2019-02-14T06:54:12.355Z,102628.22
2019-02-14T06:55:56.505Z,102639.25
2019-02-14T06:57:23.175Z,102646.34
2019-02-14T06:58:44.344Z,102646.38
2019-02-14T06:59:57.603Z,102641.11
2019-02-14T07:02:56.703Z,102646.96
2019-02-14T07:04:05.515Z,102639.09
2019-02-14T07:05:16.695Z,102635.64
2019-02-14T07:06:35.741Z,102636.13
2019-02-14T07:07:44.227Z,102642.36
2019-02-14T07:08:53.283Z,102640.58
2019-02-14T07:10:03.595Z,102649.03
2019-02-14T07:11:15.594Z,102644.66
2019-02-14T07:12:32.902Z,102644.74
2019-02-14T07:13:48.282Z,102640.83
2019-02-14T07:14:58.202Z,102646.69
2019-02-14T07:16:20.382Z,102638.28
2019-02-14T07:17:46.997Z,102638.77
2019-02-14T07:18:57.102Z,102636.19
2019-02-14T07:20:04.555Z,102637.58
2019-02-14T07:21:18.134Z,102637.58
2019-02-14T07:22:48.165Z,102638.20
2019-02-14T07:24:20.983Z,102627.53
2019-02-14T07:25:47.204Z,102638.28
2019-02-14T07:29:25.618Z,102642.44
2019-02-14T07:31:28.854Z,102644.22
2019-02-14T07:32:54.038Z,102644.30
2019-02-14T07:34:27.725Z,102643.97
2019-02-14T07:35:40.103Z,102642.23
2019-02-14T07:37:14.755Z,102648.53
2019-02-14T07:38:30.162Z,102659.98
2019-02-14T07:39:43.770Z,102659.63
2019-02-14T07:41:12.763Z,102667.04
2019-02-14T07:42:41.843Z,102667.53
2019-02-14T07:44:19.935Z,102675.03
2019-02-14T07:46:24.617Z,102672.80
2019-02-14T07:47:40.284Z,102676.34
2019-02-14T07:48:57.915Z,102673.84
2019-02-14T07:50:18.156Z,102671.69
2019-02-14T07:51:58.762Z,102666.95
2019-02-14T07:53:09.209Z,102668.02
2019-02-14T07:54:57.492Z,102663.28
2019-02-14T07:58:30.435Z,102656.97
2019-02-14T07:59:42.475Z,102652.72
2019-02-14T08:00:55.155Z,102656.59
2019-02-14T08:02:02.223Z,102647.45
2019-02-14T08:03:09.530Z,102643.19
2019-02-14T08:04:16.282Z,102633.63
2019-02-14T08:05:24.595Z,102634.65
2019-02-14T08:06:31.542Z,102631.14
2019-02-14T08:07:38.618Z,102632.55
2019-02-14T08:08:45.241Z,102624.29
2019-02-14T08:09:52.443Z,102637.11
2019-02-14T08:10:59.482Z,102636.77
2019-02-14T08:12:06.443Z,102638.14
2019-02-14T08:13:13.554Z,102649.67
2019-02-14T08:14:20.355Z,102647.11
2019-02-14T08:15:26.622Z,102650.09
2019-02-14T08:16:32.554Z,102648.35
2019-02-14T08:17:38.794Z,102648.35
2019-02-14T08:18:44.502Z,102644.39
2019-02-14T08:19:50.382Z,102643.56
2019-02-14T08:20:56.114Z,102646.25
2019-02-14T08:22:02.094Z,102647.15
2019-02-14T08:23:48.615Z,102649.79
2019-02-14T08:24:54.495Z,102655.48
2019-02-14T08:26:01.084Z,102653.04
2019-02-14T08:27:06.822Z,102650.40
2019-02-14T08:28:12.504Z,102654.44
2019-02-14T08:29:19.042Z,102650.06
2019-02-14T08:30:25.355Z,102658.47
2019-02-14T08:31:31.495Z,102657.34
2019-02-14T08:32:37.935Z,102659.98
2019-02-14T08:33:45.162Z,102659.98
2019-02-14T08:34:51.675Z,102656.02
2019-02-14T08:35:57.334Z,102656.02
2019-02-14T08:37:03.274Z,102659.53
2019-02-14T08:38:10.543Z,102663.27
2019-02-14T08:39:17.795Z,102667.72
2019-02-14T08:40:34.541Z,102662.52
2019-02-14T08:41:40.422Z,102664.25
2019-02-14T08:42:46.955Z,102668.62
2019-02-14T08:43:53.675Z,102668.70
2019-02-14T08:44:59.992Z,102655.92
2019-02-14T08:46:06.764Z,102663.87
2019-02-14T08:47:13.850Z,102668.41
2019-02-14T08:48:19.555Z,102667.01
2019-02-14T08:49:25.235Z,102665.35
2019-02-14T08:50:31.196Z,102667.09
2019-02-14T08:51:37.263Z,102668.41
2019-02-14T08:52:43.236Z,102670.63
2019-02-14T08:53:48.941Z,102675.83
2019-02-14T08:54:54.691Z,102677.98
2019-02-14T08:56:00.336Z,102680.70
2019-02-14T08:57:06.249Z,102683.87
2019-02-14T08:58:12.374Z,102683.38
2019-02-14T08:59:18.121Z,102690.66
2019-02-14T09:00:25.164Z,102690.63
2019-02-14T09:01:32.982Z,102695.05
2019-02-14T09:02:38.976Z,102697.64
2019-02-14T09:03:46.675Z,102686.09
2019-02-14T09:04:53.281Z,102690.47
2019-02-14T09:06:00.036Z,102691.80
2019-02-14T09:07:07.156Z,102686.92
2019-02-14T09:08:13.016Z,102691.19
2019-02-14T09:09:20.223Z,102689.82
2019-02-14T09:10:26.306Z,102694.20
2019-02-14T09:11:32.224Z,102691.89
2019-02-14T09:12:39.344Z,102694.20
2019-02-14T09:13:45.734Z,102691.55
2019-02-14T09:14:51.781Z,102694.23
2019-02-14T09:15:58.076Z,102698.77
2019-02-14T09:17:04.774Z,102699.67
2019-02-14T09:18:10.656Z,102705.06
2019-02-14T09:19:16.562Z,102700.73
2019-02-14T09:20:23.121Z,102706.62
2019-02-14T09:21:28.799Z,102706.78
2019-02-14T09:22:35.115Z,102700.66
2019-02-14T09:23:41.037Z,102697.16
2019-02-14T09:24:47.375Z,102702.86
2019-02-14T09:25:53.022Z,102697.53
2019-02-14T09:26:58.944Z,102699.69
2019-02-14T09:28:04.694Z,102693.58
2019-02-14T09:29:13.692Z,102697.58
2019-02-14T09:30:19.215Z,102703.34
2019-02-14T09:31:26.731Z,102699.88
2019-02-14T09:32:32.835Z,102695.98
2019-02-14T09:33:38.480Z,102692.56
2019-02-14T09:34:44.754Z,102690.41
2019-02-14T09:35:51.737Z,102686.86
2019-02-14T09:36:57.716Z,102688.52
2019-02-14T09:38:03.908Z,102677.95
2019-02-14T09:39:10.196Z,102678.75
2019-02-14T09:40:19.764Z,102681.92
2019-02-14T09:41:26.795Z,102685.13
2019-02-14T09:42:32.590Z,102681.70
2019-02-14T09:43:39.637Z,102683.09
2019-02-14T09:44:46.241Z,102681.95
2019-02-14T09:45:52.182Z,102681.61
2019-02-14T09:46:57.881Z,102681.13
2019-02-14T09:48:03.601Z,102682.94
2019-02-14T09:49:09.277Z,102689.46
2019-02-14T09:50:16.014Z,102684.94
2019-02-14T09:51:21.675Z,102686.22
2019-02-14T09:52:27.387Z,102688.78
2019-02-14T09:53:34.048Z,102690.64
2019-02-14T09:54:41.074Z,102688.41
2019-02-14T09:55:46.821Z,102691.92
2019-02-14T09:56:52.921Z,102693.84
2019-02-14T09:57:58.609Z,102690.78
2019-02-14T09:59:04.971Z,102694.33
2019-02-14T10:00:20.894Z,102696.07
2019-02-14T10:01:26.586Z,102689.54
2019-02-14T10:02:33.407Z,102692.67
2019-02-14T10:03:39.647Z,102691.24
2019-02-14T10:04:46.951Z,102682.11
2019-02-14T10:05:53.107Z,102688.89
2019-02-14T10:06:58.977Z,102697.80
2019-02-14T10:08:12.441Z,102698.33
2019-02-14T10:09:14.087Z,102700.48
2019-02-14T10:10:22.145Z,102700.89
2019-02-14T10:11:27.826Z,102701.38
2019-02-14T10:12:34.441Z,102704.03
2019-02-14T10:13:40.123Z,102698.33
2019-02-14T10:14:46.655Z,102709.39
2019-02-14T10:15:52.374Z,102699.65
2019-02-14T10:16:58.774Z,102704.14
2019-02-14T10:18:04.815Z,102705.13
2019-02-14T10:19:10.541Z,102712.25
2019-02-14T10:20:19.705Z,102715.27
2019-02-14T10:21:25.754Z,102716.03
2019-02-14T10:22:31.557Z,102719.13
2019-02-14T10:23:37.254Z,102717.35
2019-02-14T10:24:45.068Z,102725.73
2019-02-14T10:25:51.155Z,102727.99
2019-02-14T10:26:57.014Z,102719.27
2019-02-14T10:28:03.007Z,102722.82
2019-02-14T10:29:09.714Z,102720.59
2019-02-14T10:30:23.381Z,102724.56
2019-02-14T10:31:29.254Z,102723.23
2019-02-14T10:32:35.915Z,102721.91
2019-02-14T10:33:42.587Z,102723.31
2019-02-14T10:34:48.810Z,102721.27
2019-02-14T10:35:55.077Z,102723.76
2019-02-14T10:37:01.694Z,102727.76
2019-02-14T10:38:07.434Z,102731.27
2019-02-14T10:39:14.261Z,102729.16
2019-02-14T10:40:20.165Z,102730.89
2019-02-14T10:41:26.755Z,102729.68
2019-02-14T10:42:33.044Z,102728.32
2019-02-14T10:43:38.803Z,102728.32
2019-02-14T10:44:45.154Z,102733.46
2019-02-14T10:45:51.661Z,102723.34
2019-02-14T10:46:57.636Z,102730.78
2019-02-14T10:48:03.355Z,102720.06
2019-02-14T10:49:09.083Z,102727.58
2019-02-14T10:50:14.803Z,102723.76
2019-02-14T10:51:20.514Z,102728.32
2019-02-14T10:52:26.194Z,102722.66
2019-02-14T10:53:31.875Z,102724.54
2019-02-14T10:54:37.955Z,102721.52
2019-02-14T10:55:43.641Z,102723.81
2019-02-14T10:56:49.922Z,102723.92
2019-02-14T10:57:56.039Z,102727.89
2019-02-14T10:59:01.695Z,102725.14
2019-02-14T11:00:16.085Z,102732.09
2019-02-14T11:01:21.377Z,102732.92
2019-02-14T11:02:27.062Z,102736.36
2019-02-14T11:03:32.763Z,102739.91
2019-02-14T11:04:38.515Z,102742.14
2019-02-14T11:05:44.945Z,102741.23
2019-02-14T11:06:51.962Z,102743.39
2019-02-14T11:07:57.975Z,102742.89
2019-02-14T11:09:05.194Z,102745.54
2019-02-14T11:10:15.404Z,102742.78
2019-02-14T11:11:21.334Z,102740.94
2019-02-14T11:12:28.495Z,102741.69
2019-02-14T11:13:35.203Z,102739.88
2019-02-14T11:14:41.104Z,102736.37
2019-02-14T11:15:48.054Z,102734.56
2019-02-14T11:16:53.894Z,102735.80
2019-02-14T11:17:59.595Z,102732.75
2019-02-14T11:19:05.322Z,102737.54
2019-02-14T11:20:13.984Z,102741.92
2019-02-14T11:21:20.175Z,102740.98
2019-02-14T11:22:30.095Z,102737.43
2019-02-14T11:23:35.782Z,102741.80
2019-02-14T11:24:42.353Z,102743.12
2019-02-14T11:25:48.075Z,102740.38
2019-02-14T11:26:53.993Z,102743.84
2019-02-14T11:27:59.675Z,102747.73
2019-02-14T11:29:05.382Z,102748.64
2019-02-14T11:30:14.381Z,102744.75
2019-02-14T11:31:20.116Z,102750.45
2019-02-14T11:32:25.837Z,102749.13
2019-02-14T11:33:31.537Z,102751.28
2019-02-14T11:34:37.246Z,102747.81
2019-02-14T11:35:42.956Z,102743.05
2019-02-14T11:36:48.624Z,102742.22
2019-02-14T11:37:54.294Z,102744.03
2019-02-14T11:38:59.998Z,102742.41
2019-02-14T11:40:11.456Z,102744.56
2019-02-14T11:41:17.167Z,102748.11
2019-02-14T11:42:22.873Z,102742.00
2019-02-14T11:43:28.564Z,102743.73
2019-02-14T11:44:39.716Z,102749.58
2019-02-14T11:45:41.556Z,102745.13
2019-02-14T11:46:51.472Z,102743.69
2019-02-14T11:47:54.582Z,102744.45
2019-02-14T11:49:00.255Z,102747.58
2019-02-14T11:50:10.034Z,102745.77
2019-02-14T11:51:15.677Z,102752.68
2019-02-14T11:52:21.394Z,102751.44
2019-02-14T11:53:29.293Z,102748.79
2019-02-14T11:54:34.435Z,102753.39
2019-02-14T11:55:40.574Z,102749.70
2019-02-14T11:56:46.602Z,102748.48
2019-02-14T11:57:52.511Z,102750.37
2019-02-14T11:58:58.503Z,102745.50
2019-02-14T12:00:07.665Z,102740.67
2019-02-14T12:01:13.982Z,102739.67
2019-02-14T12:02:20.581Z,102735.59
2019-02-14T12:03:26.681Z,102730.83
2019-02-14T12:04:34.394Z,102725.95
2019-02-14T12:05:41.443Z,102731.60
2019-02-14T12:06:47.889Z,102722.42
2019-02-14T12:07:55.814Z,102718.52
2019-02-14T12:09:02.282Z,102722.60
2019-02-14T12:10:13.426Z,102716.66
2019-02-14T12:11:19.114Z,102718.57
2019-02-14T12:12:25.846Z,102721.66
2019-02-14T12:13:32.921Z,102712.86
2019-02-14T12:14:39.134Z,102707.71
2019-02-14T12:15:45.175Z,102710.11
2019-02-14T12:16:52.363Z,102712.83
2019-02-14T12:17:59.001Z,102710.08
2019-02-14T12:19:04.922Z,102710.08
2019-02-14T12:20:17.956Z,102718.12
2019-02-14T12:21:23.695Z,102712.41
2019-02-14T12:22:29.394Z,102712.44
2019-02-14T12:23:35.063Z,102708.61
2019-02-14T12:24:41.014Z,102712.93
2019-02-14T12:25:46.695Z,102714.95
2019-02-14T12:26:52.795Z,102716.20
2019-02-14T12:27:58.675Z,102710.25
2019-02-14T12:29:04.455Z,102714.19
2019-02-14T12:30:14.094Z,102714.46
2019-02-14T12:31:20.835Z,102707.85
2019-02-14T12:32:26.562Z,102706.91
2019-02-14T12:33:33.559Z,102707.33
2019-02-14T12:34:39.884Z,102712.13
2019-02-14T12:35:46.729Z,102702.45
2019-02-14T12:36:53.156Z,102697.58
2019-02-14T12:37:58.835Z,102700.61
2019-02-14T12:39:09.086Z,102693.55
2019-02-14T12:40:14.863Z,102690.97
2019-02-14T12:41:20.494Z,102697.17
2019-02-14T12:42:26.636Z,102696.75
2019-02-14T12:43:33.136Z,102697.58
2019-02-14T12:44:39.074Z,102698.56
2019-02-14T12:45:45.663Z,102696.33
2019-02-14T12:46:51.993Z,102693.12
2019-02-14T12:47:57.757Z,102692.71
2019-02-14T12:49:03.402Z,102700.64
2019-02-14T12:50:10.639Z,102701.13
2019-02-14T12:51:16.271Z,102697.48
2019-02-14T12:52:21.854Z,102694.34
2019-02-14T12:53:27.483Z,102695.67
2019-02-14T12:54:33.155Z,102692.61
2019-02-14T12:55:38.825Z,102694.42
2019-02-14T12:56:44.480Z,102686.52
2019-02-14T12:57:50.057Z,102688.22
2019-02-14T12:58:55.714Z,102685.51
2019-02-14T13:00:01.788Z,102689.05
2019-02-14T13:01:09.717Z,102689.05
2019-02-14T13:02:16.317Z,102689.05
2019-02-14T13:03:21.932Z,102689.96
2019-02-14T13:04:28.708Z,102688.70